createdAt,value
2023-04-01T00:02:18.914Z,94407.00
2023-04-01T00:06:21.937Z,94390.00
2023-04-01T00:10:26.144Z,94391.00
2023-04-01T00:14:29.932Z,94389.00
2023-04-01T00:18:32.908Z,94374.00
2023-04-01T00:22:35.976Z,94370.00
2023-04-01T00:26:40.178Z,94371.00
2023-04-01T00:30:43.028Z,94377.00
2023-04-01T00:34:46.420Z,94375.00
2023-04-01T00:38:49.869Z,94385.00
2023-04-01T00:42:54.161Z,94363.00
2023-04-01T00:46:57.379Z,94362.00
2023-04-01T00:51:03.008Z,94362.00
2023-04-01T00:55:09.160Z,94363.00
2023-04-01T00:59:17.945Z,94369.00
2023-04-01T01:03:20.891Z,94365.00
2023-04-01T01:07:32.082Z,94375.00
2023-04-01T01:11:43.800Z,94369.00
2023-04-01T01:15:52.308Z,94367.00
2023-04-01T01:20:25.869Z,94361.00
2023-04-01T01:24:56.564Z,94365.00
2023-04-01T01:29:07.685Z,94359.00
2023-04-01T01:33:36.588Z,94355.00
2023-04-01T01:37:43.052Z,94360.00
2023-04-01T01:41:50.317Z,94355.00
2023-04-01T01:45:56.432Z,94335.00
2023-04-01T01:49:59.666Z,94343.00
2023-04-01T01:54:03.905Z,94351.00
2023-04-01T01:58:14.056Z,94351.00
2023-04-01T02:02:18.169Z,94357.00
2023-04-01T02:06:24.259Z,94356.00
2023-04-01T02:10:30.845Z,94363.00
2023-04-01T02:14:39.392Z,94349.00
2023-04-01T02:18:44.687Z,94358.00
2023-04-01T02:22:50.796Z,94346.00
2023-04-01T02:26:55.305Z,94358.00
2023-04-01T02:31:03.393Z,94355.00
2023-04-01T02:35:08.095Z,94354.00
2023-04-01T02:39:11.408Z,94374.00
2023-04-01T02:43:15.731Z,94372.00
2023-04-01T02:47:18.596Z,94376.00
2023-04-01T02:51:21.396Z,94368.00
2023-04-01T02:55:24.268Z,94373.00
2023-04-01T02:59:28.518Z,94369.00
2023-04-01T03:03:32.519Z,94379.00
2023-04-01T03:07:35.587Z,94386.00
2023-04-01T03:11:38.395Z,94378.00
2023-04-01T03:15:42.629Z,94369.00
2023-04-01T03:19:45.612Z,94377.00
2023-04-01T03:23:48.692Z,94369.00
2023-04-01T03:27:51.630Z,94376.00
2023-04-01T03:31:58.729Z,94396.00
2023-04-01T03:36:01.697Z,94392.00
2023-04-01T03:40:05.233Z,94393.00
2023-04-01T03:44:08.793Z,94378.00
2023-04-01T03:48:13.054Z,94379.00
2023-04-01T03:52:15.985Z,94380.00
2023-04-01T03:56:18.738Z,94388.00
2023-04-01T04:00:21.736Z,94383.00
2023-04-01T04:04:31.879Z,94394.00
2023-04-01T04:08:34.752Z,94404.00
2023-04-01T04:12:37.598Z,94403.00
2023-04-01T04:16:40.577Z,94416.00
2023-04-01T04:20:49.377Z,94401.00
2023-04-01T04:24:52.213Z,94394.00
2023-04-01T04:28:56.595Z,94396.00
2023-04-01T04:32:59.702Z,94390.00
2023-04-01T04:37:04.217Z,94399.00
2023-04-01T04:41:12.819Z,94413.00
2023-04-01T04:45:16.890Z,94415.00
2023-04-01T04:49:29.053Z,94420.00
2023-04-01T04:53:33.618Z,94410.00
2023-04-01T04:57:36.508Z,94422.00
2023-04-01T05:01:39.476Z,94415.00
2023-04-01T05:05:49.794Z,94424.00
2023-04-01T05:09:53.973Z,94409.00
2023-04-01T05:13:56.788Z,94424.00
2023-04-01T05:17:59.736Z,94415.00
2023-04-01T05:22:02.715Z,94413.00
2023-04-01T05:26:09.072Z,94414.00
2023-04-01T05:30:13.106Z,94421.00
2023-04-01T05:34:20.907Z,94407.00
2023-04-01T05:38:24.165Z,94405.00
2023-04-01T05:42:28.374Z,94417.00
2023-04-01T05:46:31.572Z,94423.00
2023-04-01T05:50:43.444Z,94415.00
2023-04-01T05:54:47.643Z,94412.00
2023-04-01T05:58:54.935Z,94416.00
2023-04-01T06:03:00.841Z,94416.00
2023-04-01T06:07:12.708Z,94413.00
2023-04-01T06:11:36.486Z,94421.00
2023-04-01T06:15:45.968Z,94416.00
2023-04-01T06:19:55.450Z,94421.00
2023-04-01T06:24:14.015Z,94417.00
2023-04-01T06:28:42.572Z,94405.00
2023-04-01T06:33:11.048Z,94407.00
2023-04-01T06:37:31.581Z,94415.00
2023-04-01T06:42:00.760Z,94411.00
2023-04-01T06:46:13.388Z,94422.00
2023-04-01T06:50:54.725Z,94426.00
2023-04-01T06:55:36.669Z,94433.00
2023-04-01T07:00:08.110Z,94444.00
2023-04-01T07:04:16.054Z,94447.00
2023-04-01T07:08:24.457Z,94441.00
2023-04-01T07:12:38.820Z,94435.00
2023-04-01T07:17:05.396Z,94443.00
2023-04-01T07:21:16.419Z,94462.00
2023-04-01T07:25:26.142Z,94446.00
2023-04-01T07:29:45.224Z,94438.00
2023-04-01T07:33:59.796Z,94454.00
2023-04-01T07:38:17.007Z,94444.00
2023-04-01T07:42:32.527Z,94462.00
2023-04-01T07:46:49.778Z,94454.00
2023-04-01T07:50:58.156Z,94462.00
2023-04-01T07:55:11.010Z,94462.00
2023-04-01T07:59:24.136Z,94460.00
2023-04-01T08:03:47.954Z,94441.00
2023-04-01T08:08:01.659Z,94446.00
2023-04-01T08:12:34.127Z,94461.00
2023-04-01T08:16:47.300Z,94448.00
2023-04-01T08:21:01.762Z,94451.00
2023-04-01T08:25:08.632Z,94449.00
2023-04-01T08:29:17.477Z,94447.00
2023-04-01T08:33:27.022Z,94448.00
2023-04-01T08:37:38.619Z,94458.00
2023-04-01T08:42:04.624Z,94443.00
2023-04-01T08:47:12.911Z,94450.00
2023-04-01T08:51:47.141Z,94435.00
2023-04-01T08:56:02.829Z,94434.00
2023-04-01T09:00:18.238Z,94457.00
2023-04-01T09:05:03.302Z,94440.00
2023-04-01T09:09:42.090Z,94442.00
2023-04-01T09:14:14.850Z,94429.00
2023-04-01T09:18:41.320Z,94439.00
2023-04-01T09:22:55.079Z,94441.00
2023-04-01T09:27:07.544Z,94434.00
2023-04-01T09:31:27.795Z,94427.00
2023-04-01T09:35:54.330Z,94441.00
2023-04-01T09:40:14.124Z,94417.00
2023-04-01T09:44:26.846Z,94424.00
2023-04-01T09:48:57.687Z,94416.00
2023-04-01T09:53:13.094Z,94421.00
2023-04-01T09:57:58.818Z,94423.00
2023-04-01T10:03:04.698Z,94422.00
2023-04-01T10:07:55.607Z,94418.00
2023-04-01T10:12:34.158Z,94425.00
2023-04-01T10:16:59.878Z,94451.00
2023-04-01T10:21:27.562Z,94424.00
2023-04-01T10:25:46.247Z,94432.00
2023-04-01T10:30:16.302Z,94438.00
2023-04-01T10:34:54.360Z,94429.00
2023-04-01T10:39:10.935Z,94434.00
2023-04-01T10:43:51.275Z,94444.00
2023-04-01T10:48:30.931Z,94440.00
2023-04-01T10:53:10.874Z,94452.00
2023-04-01T10:58:10.564Z,94479.00
2023-04-01T11:03:23.106Z,94451.00
2023-04-01T11:08:19.858Z,94459.00
2023-04-01T11:12:51.677Z,94462.00
2023-04-01T11:17:28.275Z,94480.00
2023-04-01T11:22:07.124Z,94464.00
2023-04-01T11:26:34.450Z,94467.00
2023-04-01T11:31:22.444Z,94474.00
2023-04-01T11:35:40.901Z,94484.00
2023-04-01T11:40:01.636Z,94478.00
2023-04-01T11:44:36.981Z,94482.00
2023-04-01T11:49:08.609Z,94483.00
2023-04-01T11:53:29.548Z,94478.00
2023-04-01T11:57:48.632Z,94480.00
2023-04-01T12:02:01.744Z,94472.00
2023-04-01T12:06:13.477Z,94477.00
2023-04-01T12:10:20.553Z,94481.00
2023-04-01T12:14:32.872Z,94471.00
2023-04-01T12:18:40.853Z,94476.00
2023-04-01T12:22:53.798Z,94478.00
2023-04-01T12:27:09.129Z,94460.00
2023-04-01T12:31:30.078Z,94459.00
2023-04-01T12:35:45.594Z,94466.00
2023-04-01T12:40:04.975Z,94467.00
2023-04-01T12:44:36.596Z,94472.00
2023-04-01T12:49:12.376Z,94471.00
2023-04-01T12:53:34.966Z,94494.00
2023-04-01T12:58:19.588Z,94478.00
2023-04-01T13:02:35.379Z,94471.00
2023-04-01T13:06:52.522Z,94483.00
2023-04-01T13:11:06.971Z,94490.00
2023-04-01T13:15:23.534Z,94487.00
2023-04-01T13:19:36.822Z,94483.00
2023-04-01T13:23:51.053Z,94501.00
2023-04-01T13:27:59.306Z,94517.00
2023-04-01T13:32:15.947Z,94511.00
2023-04-01T13:36:32.814Z,94493.00
2023-04-01T13:40:42.756Z,94501.00
2023-04-01T13:44:51.771Z,94500.00
2023-04-01T13:49:28.842Z,94500.00
2023-04-01T13:53:51.881Z,94494.00
2023-04-01T13:58:26.041Z,94496.00
2023-04-01T14:02:55.871Z,94495.00
2023-04-01T14:07:16.509Z,94508.00
2023-04-01T14:11:28.424Z,94496.00
2023-04-01T14:15:52.161Z,94495.00
2023-04-01T14:20:22.203Z,94490.00
2023-04-01T14:24:47.871Z,94494.00
2023-04-01T14:29:02.660Z,94501.00
2023-04-01T14:33:21.050Z,94498.00
2023-04-01T14:37:59.683Z,94509.00
2023-04-01T14:42:22.321Z,94504.00
2023-04-01T14:46:45.345Z,94508.00
2023-04-01T14:50:51.130Z,94494.00
2023-04-01T14:54:54.605Z,94510.00
2023-04-01T14:58:59.887Z,94512.00
2023-04-01T15:03:15.540Z,94516.00
2023-04-01T15:07:44.434Z,94510.00
2023-04-01T15:12:00.381Z,94500.00
2023-04-01T15:16:13.625Z,94512.00
2023-04-01T15:20:32.817Z,94516.00
2023-04-01T15:24:45.329Z,94514.00
2023-04-01T15:28:58.242Z,94508.00
2023-04-01T15:33:15.940Z,94513.00
2023-04-01T15:37:30.808Z,94523.00
2023-04-01T15:41:45.460Z,94515.00
2023-04-01T15:45:58.217Z,94527.00
2023-04-01T15:50:24.976Z,94531.00
2023-04-01T15:54:53.057Z,94526.00
2023-04-01T15:59:07.007Z,94523.00
2023-04-01T16:03:21.229Z,94520.00
2023-04-01T16:07:55.662Z,94528.00
2023-04-01T16:12:09.184Z,94532.00
2023-04-01T16:16:23.139Z,94529.00
2023-04-01T16:20:36.973Z,94532.00
2023-04-01T16:24:46.649Z,94527.00
2023-04-01T16:28:56.943Z,94536.00
2023-04-01T16:33:04.803Z,94526.00
2023-04-01T16:37:13.875Z,94531.00
2023-04-01T16:41:20.898Z,94531.00
2023-04-01T16:45:35.169Z,94535.00
2023-04-01T16:49:42.528Z,94530.00
2023-04-01T16:53:49.325Z,94542.00
2023-04-01T16:57:54.222Z,94535.00
2023-04-01T17:02:06.338Z,94552.00
2023-04-01T17:06:20.493Z,94551.00
2023-04-01T17:10:42.437Z,94545.00
2023-04-01T17:14:52.542Z,94548.00
2023-04-01T17:19:04.639Z,94538.00
2023-04-01T17:23:16.188Z,94556.00
2023-04-01T17:27:33.874Z,94552.00
2023-04-01T17:31:46.933Z,94558.00
2023-04-01T17:35:59.673Z,94555.00
2023-04-01T17:40:30.569Z,94557.00
2023-04-01T17:44:43.730Z,94556.00
2023-04-01T17:48:56.869Z,94558.00
2023-04-01T17:53:18.271Z,94570.00
2023-04-01T17:57:36.146Z,94568.00
2023-04-01T18:01:50.270Z,94573.00
2023-04-01T18:06:06.088Z,94572.00
2023-04-01T18:10:27.347Z,94573.00
2023-04-01T18:15:06.401Z,94602.00
2023-04-01T18:19:18.143Z,94591.00
2023-04-01T18:23:31.447Z,94623.00
2023-04-01T18:27:40.151Z,94604.00
2023-04-01T18:31:46.297Z,94615.00
2023-04-01T18:35:54.550Z,94624.00
2023-04-01T18:40:02.605Z,94619.00
2023-04-01T18:44:29.732Z,94622.00
2023-04-01T18:48:39.754Z,94623.00
2023-04-01T18:52:45.538Z,94620.00
2023-04-01T18:56:48.466Z,94628.00
2023-04-01T19:01:07.621Z,94634.00
2023-04-01T19:05:16.368Z,94633.00
2023-04-01T19:09:22.996Z,94625.00
2023-04-01T19:13:32.262Z,94631.00
2023-04-01T19:17:51.339Z,94637.00
2023-04-01T19:22:00.297Z,94660.00
2023-04-01T19:26:07.509Z,94655.00
2023-04-01T19:30:24.642Z,94666.00
2023-04-01T19:34:43.812Z,94662.00
2023-04-01T19:38:55.615Z,94661.00
2023-04-01T19:43:04.660Z,94666.00
2023-04-01T19:47:17.980Z,94673.00
2023-04-01T19:51:27.651Z,94676.00
2023-04-01T19:55:38.609Z,94682.00
2023-04-01T19:59:49.157Z,94680.00
2023-04-01T20:03:57.622Z,94683.00
2023-04-01T20:08:09.937Z,94683.00
2023-04-01T20:12:21.985Z,94689.00
2023-04-01T20:16:53.281Z,94694.00
2023-04-01T20:20:58.359Z,94694.00
2023-04-01T20:25:11.389Z,94691.00
2023-04-01T20:29:37.404Z,94697.00
2023-04-01T20:34:05.321Z,94694.00
2023-04-01T20:38:32.542Z,94699.00
2023-04-01T20:42:51.554Z,94701.00
2023-04-01T20:47:03.221Z,94702.00
2023-04-01T20:51:08.682Z,94702.00
2023-04-01T20:55:55.529Z,94707.00
2023-04-01T21:00:16.436Z,94703.00
2023-04-01T21:04:25.657Z,94714.00
2023-04-01T21:08:42.411Z,94720.00
2023-04-01T21:12:48.136Z,94716.00
2023-04-01T21:16:59.494Z,94726.00
2023-04-01T21:21:28.460Z,94726.00
2023-04-01T21:25:41.944Z,94733.00
2023-04-01T21:29:55.190Z,94743.00
2023-04-01T21:34:15.600Z,94748.00
2023-04-01T21:38:41.109Z,94739.00
2023-04-01T21:42:50.642Z,94746.00
2023-04-01T21:47:11.220Z,94750.00
2023-04-01T21:52:07.819Z,94742.00
2023-04-01T21:56:46.156Z,94743.00
2023-04-01T22:01:02.649Z,94752.00
2023-04-01T22:05:11.505Z,94755.00
2023-04-01T22:09:23.334Z,94766.00
2023-04-01T22:13:34.688Z,94760.00
2023-04-01T22:17:43.255Z,94768.00
2023-04-01T22:22:02.029Z,94760.00
2023-04-01T22:26:11.780Z,94760.00
2023-04-01T22:30:22.396Z,94773.00
2023-04-01T22:34:36.177Z,94771.00
2023-04-01T22:38:56.882Z,94759.00
2023-04-01T22:43:03.334Z,94770.00
2023-04-01T22:47:16.690Z,94776.00
2023-04-01T22:51:23.647Z,94781.00
2023-04-01T22:55:29.500Z,94783.00
2023-04-01T22:59:38.894Z,94781.00
2023-04-01T23:03:45.998Z,94783.00
2023-04-01T23:07:56.006Z,94786.00
2023-04-01T23:12:01.385Z,94791.00
2023-04-01T23:16:04.338Z,94782.00
2023-04-01T23:20:21.691Z,94802.00
2023-04-01T23:24:30.342Z,94798.00
2023-04-01T23:28:47.337Z,94808.00
2023-04-01T23:32:50.274Z,94811.00
2023-04-01T23:36:57.185Z,94814.00
2023-04-01T23:41:00.162Z,94808.00
2023-04-01T23:45:05.353Z,94812.00
2023-04-01T23:49:14.478Z,94816.00
2023-04-01T23:53:22.800Z,94814.00
2023-04-01T23:57:30.916Z,94812.00
